createdAt,value
2023-01-13T00:00:52.107Z,26.05
2023-01-13T00:03:57.028Z,30.45
2023-01-13T00:07:00.170Z,27.25
2023-01-13T00:10:05.078Z,35.28
2023-01-13T00:13:09.272Z,22.85
2023-01-13T00:19:18.911Z,15.02
2023-01-13T00:22:20.626Z,25.70
2023-01-13T00:25:28.603Z,32.28
2023-01-13T00:28:30.188Z,19.83
2023-01-13T00:31:31.807Z,26.38
2023-01-13T00:34:33.550Z,23.77
2023-01-13T00:37:36.946Z,35.13
2023-01-13T00:40:41.425Z,25.37
2023-01-13T00:43:43.494Z,33.58
2023-01-13T00:46:45.198Z,34.55
2023-01-13T00:49:46.779Z,24.38
2023-01-13T00:52:48.476Z,34.28
2023-01-13T00:55:50.080Z,25.15
2023-01-13T00:58:51.963Z,30.20
2023-01-13T01:01:56.091Z,31.27
2023-01-13T01:04:57.740Z,35.05
2023-01-13T01:07:59.387Z,44.20
2023-01-13T01:11:25.834Z,36.10
2023-01-13T01:14:27.754Z,32.08
2023-01-13T01:17:29.372Z,35.47
2023-01-13T01:20:31.049Z,34.15
2023-01-13T01:23:33.515Z,29.83
2023-01-13T01:26:35.087Z,33.55
2023-01-13T01:29:36.679Z,41.47
2023-01-13T01:32:40.617Z,39.42
2023-01-13T01:35:44.635Z,32.50
2023-01-13T01:38:46.409Z,37.75
2023-01-13T01:41:47.978Z,40.15
2023-01-13T01:44:54.937Z,30.42
2023-01-13T01:48:02.627Z,30.77
2023-01-13T01:51:05.568Z,31.90
2023-01-13T01:54:11.276Z,35.83
2023-01-13T01:57:18.555Z,30.00
2023-01-13T02:00:21.675Z,35.45
2023-01-13T02:03:23.750Z,36.35
2023-01-13T02:06:25.574Z,33.45
2023-01-13T02:09:27.750Z,32.88
2023-01-13T02:12:30.040Z,34.88
2023-01-13T02:15:57.089Z,36.95
2023-01-13T02:19:37.418Z,29.88
2023-01-13T02:23:06.415Z,30.83
2023-01-13T02:26:28.290Z,36.03
2023-01-13T02:29:42.361Z,35.58
2023-01-13T02:33:03.172Z,39.42
2023-01-13T02:36:24.912Z,31.73
2023-01-13T02:39:53.242Z,34.90
2023-01-13T02:43:06.753Z,41.30
2023-01-13T02:46:20.485Z,28.63
2023-01-13T02:49:37.899Z,33.78
2023-01-13T02:52:44.645Z,27.25
2023-01-13T02:55:50.119Z,27.42
2023-01-13T02:58:55.663Z,25.75
2023-01-13T03:01:59.129Z,27.23
2023-01-13T03:05:01.066Z,38.70
2023-01-13T03:08:31.655Z,27.80
2023-01-13T03:11:47.483Z,34.92
2023-01-13T03:15:18.611Z,18.25
2023-01-13T03:18:30.397Z,29.52
2023-01-13T03:22:07.500Z,27.67
2023-01-13T03:25:24.065Z,24.27
2023-01-13T03:28:32.843Z,25.42
2023-01-13T03:31:44.042Z,26.25
2023-01-13T03:34:51.617Z,26.60
2023-01-13T03:38:17.222Z,16.85
2023-01-13T03:41:27.512Z,22.90
2023-01-13T03:44:44.816Z,27.73
2023-01-13T03:47:53.973Z,17.73
2023-01-13T03:51:02.290Z,22.40
2023-01-13T03:54:09.970Z,22.33
2023-01-13T03:57:15.789Z,23.23
2023-01-13T04:00:19.395Z,19.15
2023-01-13T04:03:29.404Z,18.23
2023-01-13T04:07:27.075Z,19.60
2023-01-13T04:10:34.519Z,10.38
2023-01-13T04:13:39.807Z,21.50
2023-01-13T04:16:42.088Z,14.88
2023-01-13T04:19:43.604Z,21.02
2023-01-13T04:22:45.241Z,17.42
2023-01-13T04:25:48.072Z,14.38
2023-01-13T04:28:49.700Z,15.80
2023-01-13T04:31:51.240Z,13.52
2023-01-13T04:34:52.787Z,13.45
2023-01-13T04:37:54.347Z,9.38
2023-01-13T04:40:55.954Z,15.25
2023-01-13T04:43:57.540Z,11.75
2023-01-13T04:46:59.165Z,15.00
2023-01-13T04:50:00.698Z,18.55
2023-01-13T04:53:02.520Z,15.25
2023-01-13T04:56:04.300Z,15.13
2023-01-13T04:59:05.837Z,18.48
2023-01-13T05:02:07.556Z,13.18
2023-01-13T05:05:09.873Z,24.10
2023-01-13T05:08:11.845Z,19.15
2023-01-13T05:11:13.493Z,14.93
2023-01-13T05:14:15.132Z,21.27
2023-01-13T05:17:21.006Z,15.25
2023-01-13T05:20:23.090Z,13.98
2023-01-13T05:23:24.709Z,15.95
2023-01-13T05:26:26.278Z,17.00
2023-01-13T05:29:27.902Z,19.00
2023-01-13T05:32:29.604Z,11.30
2023-01-13T05:35:31.246Z,15.85
2023-01-13T05:38:32.835Z,23.48
2023-01-13T05:41:34.411Z,18.75
2023-01-13T05:44:36.027Z,18.67
2023-01-13T05:47:37.593Z,21.17
2023-01-13T05:50:39.245Z,16.75
2023-01-13T05:53:41.193Z,13.40
2023-01-13T05:56:45.021Z,15.60
2023-01-13T05:59:46.613Z,19.45
2023-01-13T06:02:48.315Z,20.40
2023-01-13T06:05:49.935Z,8.13
2023-01-13T06:08:51.436Z,19.15
2023-01-13T06:11:53.017Z,17.65
2023-01-13T06:14:54.616Z,10.07
2023-01-13T06:17:56.601Z,20.10
2023-01-13T06:20:58.074Z,20.00
2023-01-13T06:23:59.758Z,15.27
2023-01-13T06:27:01.271Z,20.70
2023-01-13T06:30:03.327Z,18.52
2023-01-13T06:33:09.571Z,23.45
2023-01-13T06:36:20.532Z,15.18
2023-01-13T06:39:26.262Z,17.90
2023-01-13T06:42:31.033Z,16.08
2023-01-13T06:45:32.885Z,21.05
2023-01-13T06:48:35.126Z,17.23
2023-01-13T06:51:36.837Z,22.92
2023-01-13T06:54:38.535Z,17.42
2023-01-13T06:57:54.851Z,22.88
2023-01-13T07:01:00.169Z,19.38
2023-01-13T07:04:01.862Z,19.40
2023-01-13T07:07:03.332Z,17.30
2023-01-13T07:10:07.897Z,21.92
2023-01-13T07:13:11.879Z,18.83
2023-01-13T07:16:13.575Z,17.20
2023-01-13T07:19:15.127Z,18.38
2023-01-13T07:22:16.636Z,15.20
2023-01-13T07:25:18.280Z,16.63
2023-01-13T07:28:19.898Z,17.85
2023-01-13T07:31:27.165Z,19.95
2023-01-13T07:34:28.888Z,26.25
2023-01-13T07:37:33.047Z,16.10
2023-01-13T07:40:34.783Z,18.92
2023-01-13T07:43:39.542Z,12.88
2023-01-13T07:46:41.381Z,20.00
2023-01-13T07:49:43.138Z,25.80
2023-01-13T07:52:48.614Z,21.50
2023-01-13T07:55:56.421Z,13.83
2023-01-13T07:59:01.583Z,20.27
2023-01-13T08:02:08.447Z,18.30
2023-01-13T08:05:12.778Z,17.80
2023-01-13T08:08:21.857Z,19.30
2023-01-13T08:11:34.964Z,17.40
2023-01-13T08:14:50.224Z,23.25
2023-01-13T08:22:05.579Z,30.25
2023-01-13T08:28:14.061Z,24.70
2023-01-13T08:31:21.787Z,20.85
2023-01-13T08:34:51.943Z,19.55
2023-01-13T08:38:06.984Z,23.30
2023-01-13T08:41:12.838Z,30.17
2023-01-13T08:44:14.351Z,20.15
2023-01-13T08:47:19.429Z,28.60
2023-01-13T08:50:30.983Z,22.80
2023-01-13T08:53:39.209Z,30.83
2023-01-13T08:56:46.631Z,20.13
2023-01-13T08:59:52.218Z,26.60
2023-01-13T09:02:57.988Z,18.13
2023-01-13T09:06:07.956Z,22.85
2023-01-13T09:09:11.703Z,22.23
2023-01-13T09:12:29.323Z,20.27
2023-01-13T09:15:31.059Z,22.60
2023-01-13T09:18:37.644Z,14.55
2023-01-13T09:21:39.587Z,20.05
2023-01-13T09:24:41.211Z,26.17
2023-01-13T09:27:45.420Z,21.40
2023-01-13T09:30:49.814Z,21.38
2023-01-13T09:33:51.491Z,25.20
2023-01-13T09:36:56.098Z,26.13
2023-01-13T09:39:57.713Z,28.70
2023-01-13T09:43:08.753Z,23.65
2023-01-13T09:46:22.731Z,20.40
2023-01-13T09:49:31.182Z,21.30
2023-01-13T09:52:36.614Z,22.92
2023-01-13T09:55:38.148Z,16.75
2023-01-13T09:58:39.731Z,17.88
2023-01-13T10:01:41.202Z,21.52
2023-01-13T10:04:42.832Z,18.83
2023-01-13T10:07:52.430Z,20.90
2023-01-13T10:11:41.747Z,19.75
2023-01-13T10:14:55.527Z,19.67
2023-01-13T10:22:28.049Z,9.17
2023-01-13T10:25:53.341Z,15.20
2023-01-13T10:29:19.491Z,17.17
2023-01-13T10:33:41.481Z,17.33
2023-01-13T10:42:07.386Z,14.02
2023-01-13T10:45:38.090Z,14.93
2023-01-13T10:53:12.989Z,10.98
2023-01-13T10:56:23.719Z,11.13
2023-01-13T10:59:27.967Z,16.63
2023-01-13T11:02:32.341Z,15.80
2023-01-13T11:05:34.124Z,11.52
2023-01-13T11:08:44.795Z,16.05
2023-01-13T11:11:46.660Z,11.05
2023-01-13T11:14:49.426Z,14.98
2023-01-13T11:18:03.420Z,13.65
2023-01-13T11:21:17.397Z,12.30
2023-01-13T11:24:29.482Z,14.73
2023-01-13T11:27:42.952Z,18.52
2023-01-13T11:31:04.551Z,14.52
2023-01-13T11:34:33.807Z,15.68
2023-01-13T11:37:43.478Z,14.05
2023-01-13T11:40:50.633Z,15.70
2023-01-13T11:43:59.519Z,17.23
2023-01-13T11:47:01.704Z,15.40
2023-01-13T11:50:04.609Z,20.13
2023-01-13T11:53:14.277Z,14.13
2023-01-13T11:56:28.191Z,17.40
2023-01-13T11:59:54.776Z,16.42
2023-01-13T12:03:23.370Z,9.95
2023-01-13T12:06:35.580Z,14.95
2023-01-13T12:09:55.018Z,13.95
2023-01-13T12:13:11.783Z,16.83
2023-01-13T12:16:19.663Z,15.30
2023-01-13T12:19:31.823Z,12.23
2023-01-13T12:22:37.258Z,19.95
2023-01-13T12:25:49.914Z,16.05
2023-01-13T12:28:57.944Z,13.50
2023-01-13T12:32:03.710Z,16.92
2023-01-13T12:35:17.249Z,11.68
2023-01-13T12:38:57.036Z,15.87
2023-01-13T12:42:17.443Z,10.80
2023-01-13T12:45:23.507Z,12.05
2023-01-13T12:48:52.192Z,9.40
2023-01-13T12:51:56.755Z,11.38
2023-01-13T12:54:58.325Z,16.30
2023-01-13T12:58:24.476Z,12.43
2023-01-13T13:01:36.030Z,11.15
2023-01-13T13:04:51.451Z,10.25
2023-01-13T13:12:55.361Z,16.33
2023-01-13T13:16:43.941Z,11.63
2023-01-13T13:19:57.863Z,10.10
2023-01-13T13:23:58.264Z,18.60
2023-01-13T13:27:50.566Z,14.85
2023-01-13T13:31:09.062Z,14.47
2023-01-13T13:42:25.070Z,15.13
2023-01-13T13:45:40.848Z,16.73
2023-01-13T13:48:54.318Z,11.65
2023-01-13T13:52:28.245Z,12.05
2023-01-13T13:56:18.752Z,16.42
2023-01-13T14:03:42.581Z,17.05
2023-01-13T14:07:03.615Z,18.38
2023-01-13T14:14:14.339Z,11.13
2023-01-13T14:17:58.801Z,13.15
2023-01-13T14:21:28.484Z,12.60
2023-01-13T14:25:30.099Z,15.52
2023-01-13T14:32:31.812Z,12.45
2023-01-13T14:36:36.029Z,13.52
2023-01-13T14:39:42.829Z,17.98
2023-01-13T14:43:46.082Z,13.63
2023-01-13T14:46:47.696Z,15.57
2023-01-13T14:49:58.596Z,16.00
2023-01-13T14:53:34.960Z,13.15
2023-01-13T14:56:36.500Z,11.80
2023-01-13T14:59:56.512Z,16.27
2023-01-13T15:02:59.311Z,14.23
2023-01-13T15:06:22.307Z,17.98
2023-01-13T15:09:27.681Z,12.68
2023-01-13T15:12:39.697Z,13.50
2023-01-13T15:15:41.656Z,8.95
2023-01-13T15:18:58.503Z,15.52
2023-01-13T15:22:09.196Z,10.50
2023-01-13T15:25:14.341Z,14.63
2023-01-13T15:28:22.495Z,16.80
2023-01-13T15:31:28.563Z,16.80
2023-01-13T15:34:30.252Z,14.00
2023-01-13T15:37:31.853Z,13.10
2023-01-13T15:40:45.839Z,15.95
2023-01-13T15:43:50.969Z,13.13
2023-01-13T15:46:52.704Z,15.38
2023-01-13T15:49:57.339Z,9.73
2023-01-13T15:52:58.896Z,13.60
2023-01-13T15:56:00.697Z,11.77
2023-01-13T15:59:03.106Z,10.52
2023-01-13T16:02:12.289Z,12.38
2023-01-13T16:05:13.884Z,15.80
2023-01-13T16:08:22.400Z,12.15
2023-01-13T16:11:23.965Z,11.43
2023-01-13T16:14:25.435Z,9.23
2023-01-13T16:17:27.337Z,17.23
2023-01-13T16:20:29.036Z,19.50
2023-01-13T16:23:30.552Z,16.35
2023-01-13T16:26:32.128Z,9.65
2023-01-13T16:29:33.661Z,11.05
2023-01-13T16:32:35.210Z,14.98
2023-01-13T16:35:37.383Z,13.40
2023-01-13T16:38:58.994Z,12.73
2023-01-13T16:42:00.577Z,11.65
2023-01-13T16:45:02.057Z,12.32
2023-01-13T16:48:03.590Z,14.25
2023-01-13T16:51:05.345Z,13.10
2023-01-13T16:54:06.953Z,16.10
2023-01-13T16:57:13.166Z,12.70
2023-01-13T17:00:15.384Z,9.77
2023-01-13T17:03:16.982Z,11.20
2023-01-13T17:06:25.374Z,17.55
2023-01-13T17:09:28.794Z,12.98
2023-01-13T17:12:30.359Z,10.80
2023-01-13T17:15:31.914Z,15.60
2023-01-13T17:18:34.089Z,13.38
2023-01-13T17:21:35.624Z,9.80
2023-01-13T17:24:37.197Z,7.68
2023-01-13T17:27:38.858Z,10.50
2023-01-13T17:30:43.857Z,12.80
2023-01-13T17:33:45.402Z,13.10
2023-01-13T17:36:47.838Z,13.93
2023-01-13T17:39:49.418Z,12.18
2023-01-13T17:42:52.106Z,11.60
2023-01-13T17:46:03.183Z,9.65
2023-01-13T17:49:04.791Z,13.32
2023-01-13T17:52:06.520Z,19.02
2023-01-13T17:55:08.514Z,10.95
2023-01-13T17:58:10.069Z,13.25
2023-01-13T18:01:15.567Z,10.18
2023-01-13T18:04:19.332Z,8.63
2023-01-13T18:07:20.871Z,11.15
2023-01-13T18:10:22.422Z,8.13
2023-01-13T18:13:23.878Z,10.38
2023-01-13T18:16:27.387Z,14.32
2023-01-13T18:19:32.105Z,12.98
2023-01-13T18:22:33.614Z,16.50
2023-01-13T18:25:35.156Z,18.67
2023-01-13T18:28:36.635Z,13.25
2023-01-13T18:31:38.073Z,7.53
2023-01-13T18:34:39.678Z,10.05
2023-01-13T18:37:41.252Z,11.40
2023-01-13T18:40:43.880Z,14.75
2023-01-13T18:43:52.955Z,12.88
2023-01-13T18:46:54.459Z,12.48
2023-01-13T18:49:57.276Z,14.35
2023-01-13T18:52:58.953Z,12.35
2023-01-13T18:56:00.515Z,12.13
2023-01-13T18:59:03.497Z,18.00
2023-01-13T19:02:06.486Z,14.60
2023-01-13T19:05:08.890Z,16.85
2023-01-13T19:08:10.424Z,11.52
2023-01-13T19:11:11.871Z,11.40
2023-01-13T19:14:14.177Z,7.68
2023-01-13T19:17:16.273Z,11.65
2023-01-13T19:20:17.924Z,10.52
2023-01-13T19:23:19.403Z,15.77
2023-01-13T19:26:21.167Z,16.27
2023-01-13T19:29:22.663Z,12.43
2023-01-13T19:32:24.659Z,20.55
2023-01-13T19:35:26.171Z,14.68
2023-01-13T19:38:28.170Z,17.27
2023-01-13T19:41:29.765Z,15.65
2023-01-13T19:44:31.286Z,7.97
2023-01-13T19:47:33.056Z,13.40
2023-01-13T19:50:38.930Z,14.43
2023-01-13T19:53:41.582Z,12.05
2023-01-13T19:56:43.186Z,10.60
2023-01-13T19:59:44.739Z,10.55
2023-01-13T20:02:47.171Z,13.02
2023-01-13T20:05:48.904Z,6.93
2023-01-13T20:08:50.419Z,13.00
2023-01-13T20:11:52.132Z,12.70
2023-01-13T20:14:53.782Z,20.23
2023-01-13T20:17:56.235Z,16.13
2023-01-13T20:20:57.737Z,15.75
2023-01-13T20:23:59.249Z,16.38
2023-01-13T20:27:01.661Z,20.88
2023-01-13T20:30:04.974Z,21.50
2023-01-13T20:33:06.455Z,20.07
2023-01-13T20:36:15.897Z,14.90
2023-01-13T20:39:20.166Z,15.52
2023-01-13T20:42:21.630Z,14.73
2023-01-13T20:45:23.182Z,16.05
2023-01-13T20:48:24.771Z,12.25
2023-01-13T20:51:26.379Z,10.40
2023-01-13T20:54:28.008Z,8.77
2023-01-13T20:57:29.528Z,18.55
2023-01-13T21:00:31.123Z,18.45
2023-01-13T21:03:33.064Z,16.52
2023-01-13T21:06:34.981Z,18.15
2023-01-13T21:09:36.656Z,12.43
2023-01-13T21:12:38.176Z,13.43
2023-01-13T21:15:39.673Z,14.85
2023-01-13T21:18:41.500Z,12.40
2023-01-13T21:21:42.939Z,12.40
2023-01-13T21:24:44.471Z,14.18
2023-01-13T21:27:46.040Z,14.00
2023-01-13T21:30:47.594Z,7.95
2023-01-13T21:33:55.399Z,7.97
2023-01-13T21:36:57.176Z,19.90
2023-01-13T21:39:58.657Z,11.88
2023-01-13T21:43:00.210Z,11.07
2023-01-13T21:46:01.735Z,19.73
2023-01-13T21:49:04.385Z,14.40
2023-01-13T21:52:05.901Z,15.73
2023-01-13T21:55:07.748Z,11.57
2023-01-13T21:58:12.338Z,10.50
2023-01-13T22:01:14.395Z,12.07
2023-01-13T22:04:15.954Z,16.90
2023-01-13T22:07:17.452Z,15.90
2023-01-13T22:10:22.058Z,8.23
2023-01-13T22:13:23.634Z,13.80
2023-01-13T22:16:25.803Z,14.05
2023-01-13T22:19:27.239Z,12.13
2023-01-13T22:22:28.741Z,14.13
2023-01-13T22:25:30.268Z,29.83
2023-01-13T22:28:31.743Z,24.73
2023-01-13T22:31:33.405Z,26.25
2023-01-13T22:34:35.393Z,42.65
2023-01-13T22:37:37.615Z,23.27
2023-01-13T22:40:39.093Z,30.58
2023-01-13T22:43:40.539Z,20.80
2023-01-13T22:46:42.026Z,18.38
2023-01-13T22:49:43.507Z,21.27
2023-01-13T22:52:44.990Z,27.88
2023-01-13T22:55:59.659Z,33.72
2023-01-13T22:59:02.773Z,22.95
2023-01-13T23:02:04.309Z,25.15
2023-01-13T23:05:06.088Z,24.90
2023-01-13T23:08:09.242Z,26.83
2023-01-13T23:11:13.461Z,23.35
2023-01-13T23:17:16.518Z,14.38
2023-01-13T23:20:18.353Z,11.75
2023-01-13T23:23:19.869Z,8.60
2023-01-13T23:26:22.113Z,22.30
2023-01-13T23:29:23.548Z,16.38
2023-01-13T23:32:25.110Z,13.80
2023-01-13T23:35:26.545Z,11.75
2023-01-13T23:38:29.300Z,14.10
2023-01-13T23:41:30.772Z,17.27
2023-01-13T23:44:32.264Z,11.90
2023-01-13T23:47:33.738Z,20.60
2023-01-13T23:50:35.642Z,11.35
2023-01-13T23:53:40.498Z,8.35
2023-01-13T23:56:42.217Z,12.50
2023-01-13T23:59:43.772Z,13.77
